Terminal Aerodrome Forecast
Issued by NWS Blacksburg, VA

Home | Current Version | Previous Version | Text Only | Print | Product List | Glossary On
Versions: 1 2 3 4 5 6 7 8 9 10 11 12 13 14 15 16 17 18 19 20 21
000
FTUS41 KRNK 161120
TAFROA
TAF
KROA 161120Z 1612/1712 14004KT P6SM OVC013
     FM161400 12004KT P6SM OVC008
      TEMPO 1614/1617 OVC003
     FM162300 13004KT P6SM BKN008
     FM170500 00000KT 4SM BR OVC003=

USA.gov is the U.S. government's official web portal to all federal, state and local government web resources and services.